Time;durP1;ratioP1;P1;durP2;ratioP2;P2;SDS_P1;SDS_P2;PMS_P1;PMS_P2;Temp;Humidity;BMP_temperature;BMP_pressure;BME280_temperature;BME280_humidity;BME280_pressure;Samples;Min_cycle;Max_cycle;Signal;HPM_P1;HPM_P2
2023/12/28 00:01:18;;;;;;;100.70;50.53;;;;;;;;;;10402622;28;20044;-79
2023/12/28 00:06:19;;;;;;;102.63;48.83;;;;;;;;;;10408465;28;20045;-82
2023/12/28 00:11:20;;;;;;;104.27;50.10;;;;;;;;;;10407116;28;20043;-79
2023/12/28 00:16:21;;;;;;;104.13;52.10;;;;;;;;;;10396355;28;20450;-81
2023/12/28 00:21:22;;;;;;;113.67;54.57;;;;;;;;;;10405630;28;20049;-80
2023/12/28 00:26:23;;;;;;;105.70;50.23;;;;;;;;;;10394490;28;20064;-80
2023/12/28 00:31:25;;;;;;;108.60;50.80;;;;;;;;;;10405195;28;20033;-80
2023/12/28 00:36:26;;;;;;;103.17;49.47;;;;;;;;;;10402016;28;20492;-80
2023/12/28 00:41:27;;;;;;;116.10;53.90;;;;;;;;;;10400617;28;20030;-80
2023/12/28 00:46:28;;;;;;;111.67;51.43;;;;;;;;;;10390826;28;20053;-80
2023/12/28 00:51:29;;;;;;;115.97;55.93;;;;;;;;;;10399556;28;20111;-80
2023/12/28 00:56:30;;;;;;;115.13;54.90;;;;;;;;;;10395605;28;20052;-80
2023/12/28 01:01:31;;;;;;;115.83;54.80;;;;;;;;;;10372426;28;20481;-80
2023/12/28 01:06:32;;;;;;;121.07;58.63;;;;;;;;;;10393904;28;20045;-80
2023/12/28 01:11:33;;;;;;;119.07;57.53;;;;;;;;;;10400132;28;20030;-80
2023/12/28 01:16:35;;;;;;;115.60;54.80;;;;;;;;;;10399742;28;20073;-80
2023/12/28 01:21:36;;;;;;;107.77;54.43;;;;;;;;;;10406468;28;20120;-80
2023/12/28 01:26:37;;;;;;;101.43;50.67;;;;;;;;;;10376560;28;20476;-80
2023/12/28 01:31:39;;;;;;;108.93;53.47;;;;;;;;;;10395711;28;20030;-83
2023/12/28 01:36:43;;;;;;;109.50;52.37;;;;;;;;;;10396419;28;20040;-80
2023/12/28 01:41:46;;;;;;;100.47;50.00;;;;;;;;;;10401530;28;20037;-82
2023/12/28 01:46:47;;;;;;;108.07;52.03;;;;;;;;;;10400185;28;20045;-82
2023/12/28 01:51:49;;;;;;;103.00;50.53;;;;;;;;;;10403794;28;20048;-80
2023/12/28 01:56:57;;;;;;;101.70;49.93;;;;;;;;;;10381527;28;20040;-80
2023/12/28 02:01:59;;;;;;;99.83;50.37;;;;;;;;;;10386664;28;20038;-82
2023/12/28 02:07:07;;;;;;;99.03;48.70;;;;;;;;;;10388853;28;20140;-81
2023/12/28 02:12:08;;;;;;;98.57;46.17;;;;;;;;;;10394886;28;20083;-80
2023/12/28 02:17:21;;;;;;;96.33;48.70;;;;;;;;;;10382518;28;20034;-80
2023/12/28 02:22:29;;;;;;;95.60;48.47;;;;;;;;;;10387379;28;20037;-80
2023/12/28 02:27:30;;;;;;;85.47;45.17;;;;;;;;;;10382378;28;20072;-80
2023/12/28 02:32:41;;;;;;;87.90;43.43;;;;;;;;;;10387849;28;20061;-80
2023/12/28 02:37:59;;;;;;;85.53;43.40;;;;;;;;;;10387231;28;20065;-80
2023/12/28 02:43:00;;;;;;;80.00;41.47;;;;;;;;;;10400937;28;20457;-80
2023/12/28 02:48:02;;;;;;;95.53;44.87;;;;;;;;;;10396907;28;20053;-80
2023/12/28 02:53:03;;;;;;;80.53;40.33;;;;;;;;;;10401679;28;20040;-80
2023/12/28 02:58:05;;;;;;;80.17;41.60;;;;;;;;;;10389554;28;20038;-83
2023/12/28 03:03:06;;;;;;;93.33;43.70;;;;;;;;;;10390264;28;20033;-82
2023/12/28 03:08:07;;;;;;;84.67;43.00;;;;;;;;;;10398028;28;20037;-80
2023/12/28 03:13:08;;;;;;;85.17;43.53;;;;;;;;;;10408594;28;20037;-83
2023/12/28 03:18:09;;;;;;;81.20;41.27;;;;;;;;;;10399171;28;20120;-82
2023/12/28 03:23:12;;;;;;;80.00;39.50;;;;;;;;;;10407169;28;20069;-80
2023/12/28 03:28:13;;;;;;;79.10;40.30;;;;;;;;;;10406634;28;20417;-80
2023/12/28 03:33:14;;;;;;;83.53;41.00;;;;;;;;;;10402848;28;20034;-81
2023/12/28 03:38:15;;;;;;;81.57;42.07;;;;;;;;;;10391718;28;20034;-80
2023/12/28 03:43:17;;;;;;;84.90;42.63;;;;;;;;;;10393007;28;20113;-83
2023/12/28 03:48:18;;;;;;;84.80;41.77;;;;;;;;;;10380164;28;20045;-80
2023/12/28 03:53:19;;;;;;;90.53;44.53;;;;;;;;;;10403833;28;20029;-80
2023/12/28 03:58:20;;;;;;;74.83;37.37;;;;;;;;;;10399975;28;20041;-81
2023/12/28 04:03:21;;;;;;;80.97;41.27;;;;;;;;;;10404006;28;20044;-80
2023/12/28 04:08:22;;;;;;;87.50;43.00;;;;;;;;;;10403707;28;20038;-80
2023/12/28 04:13:23;;;;;;;88.87;41.43;;;;;;;;;;10388791;28;20037;-79
2023/12/28 04:18:24;;;;;;;110.83;51.57;;;;;;;;;;10384687;28;20034;-79
2023/12/28 04:23:25;;;;;;;108.27;51.47;;;;;;;;;;10405413;28;20032;-81
2023/12/28 04:28:26;;;;;;;108.17;51.13;;;;;;;;;;10402321;28;20057;-80
2023/12/28 04:33:27;;;;;;;97.03;47.83;;;;;;;;;;10395683;28;20067;-79
2023/12/28 04:38:28;;;;;;;123.87;57.87;;;;;;;;;;10407763;28;20535;-79
2023/12/28 04:43:29;;;;;;;93.50;45.50;;;;;;;;;;10395905;28;20080;-79
2023/12/28 04:48:30;;;;;;;84.20;40.27;;;;;;;;;;10395911;28;20083;-80
2023/12/28 04:53:32;;;;;;;66.23;32.00;;;;;;;;;;10400642;28;20033;-79
2023/12/28 04:58:33;;;;;;;50.63;25.50;;;;;;;;;;10384917;28;20029;-78
2023/12/28 05:03:34;;;;;;;54.90;27.00;;;;;;;;;;10401247;28;20041;-79
2023/12/28 05:08:35;;;;;;;66.00;31.80;;;;;;;;;;10390583;28;20045;-81
2023/12/28 05:13:36;;;;;;;68.43;35.93;;;;;;;;;;10389787;28;20033;-81
2023/12/28 05:18:37;;;;;;;51.80;25.90;;;;;;;;;;10397463;28;20041;-79
2023/12/28 05:23:44;;;;;;;44.97;25.13;;;;;;;;;;10395959;28;20037;-79
2023/12/28 05:28:45;;;;;;;53.63;28.53;;;;;;;;;;10402644;28;20053;-79
2023/12/28 05:33:46;;;;;;;58.47;32.23;;;;;;;;;;10396169;28;20037;-81
2023/12/28 05:38:47;;;;;;;61.07;28.90;;;;;;;;;;10403827;28;20116;-79
2023/12/28 05:43:48;;;;;;;58.43;29.70;;;;;;;;;;10401270;28;20037;-82
2023/12/28 05:48:49;;;;;;;61.47;29.50;;;;;;;;;;10403476;28;20550;-78
2023/12/28 05:53:51;;;;;;;61.20;31.00;;;;;;;;;;10396768;28;20046;-79
2023/12/28 05:58:52;;;;;;;54.13;28.43;;;;;;;;;;10392474;28;20032;-78
2023/12/28 06:03:53;;;;;;;57.23;30.90;;;;;;;;;;10400430;28;20044;-82
2023/12/28 06:08:54;;;;;;;96.93;56.40;;;;;;;;;;10400327;28;20473;-79
2023/12/28 06:13:55;;;;;;;81.23;45.20;;;;;;;;;;10404252;28;20037;-79
2023/12/28 06:18:56;;;;;;;70.07;35.67;;;;;;;;;;10380594;28;20480;-78
2023/12/28 06:23:58;;;;;;;80.23;39.60;;;;;;;;;;10402072;28;20033;-81
2023/12/28 06:28:59;;;;;;;50.90;22.27;;;;;;;;;;10365830;28;20272;-80
2023/12/28 06:34:00;;;;;;;31.53;15.07;;;;;;;;;;10381544;28;20032;-79
2023/12/28 06:39:01;;;;;;;31.87;15.77;;;;;;;;;;10384957;28;20030;-79
2023/12/28 06:44:02;;;;;;;32.10;15.30;;;;;;;;;;10382779;28;20030;-80
2023/12/28 06:49:03;;;;;;;33.80;16.67;;;;;;;;;;10370845;28;20110;-79
2023/12/28 06:54:04;;;;;;;37.53;18.50;;;;;;;;;;10372079;28;20108;-79
2023/12/28 06:59:05;;;;;;;41.53;17.83;;;;;;;;;;10391749;28;20044;-79
2023/12/28 07:04:06;;;;;;;30.70;15.77;;;;;;;;;;10370006;28;20074;-78
2023/12/28 07:09:13;;;;;;;31.90;15.63;;;;;;;;;;10374198;28;20037;-80
2023/12/28 07:14:14;;;;;;;35.97;17.70;;;;;;;;;;10386448;28;20168;-78
2023/12/28 07:19:15;;;;;;;39.50;22.07;;;;;;;;;;10383130;28;20057;-78
2023/12/28 07:24:16;;;;;;;43.67;22.27;;;;;;;;;;10380960;28;20021;-79
2023/12/28 07:29:17;;;;;;;46.67;26.80;;;;;;;;;;10367636;28;20444;-80
2023/12/28 07:34:18;;;;;;;48.77;24.63;;;;;;;;;;10373074;28;20026;-78
2023/12/28 07:39:19;;;;;;;42.40;23.63;;;;;;;;;;10382386;28;20121;-78
2023/12/28 07:44:20;;;;;;;39.87;21.33;;;;;;;;;;10363216;28;20037;-80
2023/12/28 07:49:22;;;;;;;40.93;20.73;;;;;;;;;;10387251;28;20030;-78
2023/12/28 07:54:29;;;;;;;35.63;16.40;;;;;;;;;;10361196;28;20068;-81
2023/12/28 07:59:30;;;;;;;36.07;17.30;;;;;;;;;;10380782;28;20120;-79
2023/12/28 08:04:31;;;;;;;32.17;15.97;;;;;;;;;;10387773;28;21161;-79
2023/12/28 08:09:33;;;;;;;35.80;16.80;;;;;;;;;;10369755;28;20034;-79
2023/12/28 08:14:34;;;;;;;28.40;15.97;;;;;;;;;;10369975;28;20110;-80
2023/12/28 08:19:35;;;;;;;27.67;15.07;;;;;;;;;;10370326;28;20036;-80
2023/12/28 08:24:43;;;;;;;37.73;18.30;;;;;;;;;;10370141;28;20033;-79
2023/12/28 08:29:45;;;;;;;31.97;17.37;;;;;;;;;;10366743;28;20057;-80
2023/12/28 08:34:47;;;;;;;27.77;15.07;;;;;;;;;;10369045;28;20367;-79
2023/12/28 08:39:48;;;;;;;35.23;18.10;;;;;;;;;;10391426;28;20029;-79
2023/12/28 08:44:49;;;;;;;30.97;15.67;;;;;;;;;;10372451;28;20045;-79
2023/12/28 08:49:51;;;;;;;23.63;13.67;;;;;;;;;;10386370;28;20065;-79
2023/12/28 08:54:52;;;;;;;25.90;12.67;;;;;;;;;;10377544;28;20468;-78
2023/12/28 08:59:53;;;;;;;24.97;12.93;;;;;;;;;;10386800;28;20429;-78
2023/12/28 09:04:54;;;;;;;25.37;13.27;;;;;;;;;;10374071;28;20413;-78
2023/12/28 09:09:55;;;;;;;22.43;11.47;;;;;;;;;;10390535;28;20034;-78
2023/12/28 09:15:02;;;;;;;30.93;16.17;;;;;;;;;;10375584;28;20022;-77
2023/12/28 09:20:06;;;;;;;27.33;13.83;;;;;;;;;;10390443;28;20033;-78
2023/12/28 09:25:07;;;;;;;24.80;12.17;;;;;;;;;;10364733;28;20052;-80
2023/12/28 09:30:08;;;;;;;23.50;13.63;;;;;;;;;;10382310;28;20065;-81
2023/12/28 09:35:09;;;;;;;27.57;12.87;;;;;;;;;;10395040;28;20052;-80
2023/12/28 09:40:11;;;;;;;24.37;12.93;;;;;;;;;;10388406;28;20112;-77
2023/12/28 09:45:12;;;;;;;23.40;12.73;;;;;;;;;;10377467;28;20048;-78
2023/12/28 09:50:13;;;;;;;21.40;11.87;;;;;;;;;;10379460;28;20122;-78
2023/12/28 09:55:14;;;;;;;20.30;11.23;;;;;;;;;;10379941;28;20440;-79
2023/12/28 10:00:16;;;;;;;19.37;10.53;;;;;;;;;;10388942;28;20504;-78
2023/12/28 10:05:17;;;;;;;17.70;10.60;;;;;;;;;;10380309;28;20048;-77
2023/12/28 10:10:25;;;;;;;17.93;9.60;;;;;;;;;;10364280;28;20050;-78
2023/12/28 10:15:26;;;;;;;16.57;9.43;;;;;;;;;;10362292;28;20030;-77
2023/12/28 10:20:28;;;;;;;15.73;8.63;;;;;;;;;;10365714;28;20084;-78
2023/12/28 10:25:36;;;;;;;13.90;7.50;;;;;;;;;;10364416;28;20045;-78
2023/12/28 10:30:44;;;;;;;13.30;6.97;;;;;;;;;;10366397;28;20123;-78
2023/12/28 10:35:45;;;;;;;11.90;6.53;;;;;;;;;;10366414;28;20382;-79
2023/12/28 10:40:49;;;;;;;13.97;7.27;;;;;;;;;;10364902;28;20026;-79
2023/12/28 10:45:55;;;;;;;9.88;6.07;;;;;;;;;;10364935;28;20056;-79
2023/12/28 10:50:57;;;;;;;10.27;6.20;;;;;;;;;;10359027;28;20030;-80
2023/12/28 10:56:17;;;;;;;10.57;6.17;;;;;;;;;;10365345;28;20076;-80
2023/12/28 11:01:38;;;;;;;14.07;6.50;;;;;;;;;;10360359;28;20495;-79
2023/12/28 11:06:41;;;;;;;15.13;7.00;;;;;;;;;;10363454;28;20083;-78
2023/12/28 11:11:47;;;;;;;13.33;7.03;;;;;;;;;;10376489;28;20038;-79
2023/12/28 11:16:48;;;;;;;13.83;7.00;;;;;;;;;;10372097;28;20370;-78
2023/12/28 11:21:50;;;;;;;15.37;8.27;;;;;;;;;;10376700;28;20025;-79
2023/12/28 11:26:54;;;;;;;14.67;6.93;;;;;;;;;;10370389;28;20507;-78
2023/12/28 11:31:57;;;;;;;13.43;7.80;;;;;;;;;;10369407;28;20026;-78
2023/12/28 11:37:01;;;;;;;12.47;7.27;;;;;;;;;;10370627;28;20433;-77
2023/12/28 11:42:05;;;;;;;14.97;8.30;;;;;;;;;;10371623;28;20477;-78
2023/12/28 11:47:12;;;;;;;18.63;8.93;;;;;;;;;;10368226;28;20041;-78
2023/12/28 11:52:24;;;;;;;19.67;9.07;;;;;;;;;;10368139;28;20125;-79
2023/12/28 11:57:25;;;;;;;15.13;8.32;;;;;;;;;;10371029;28;20135;-79
2023/12/28 12:02:27;;;;;;;19.83;9.40;;;;;;;;;;10375277;28;20033;-80
2023/12/28 12:07:28;;;;;;;12.77;8.02;;;;;;;;;;10373786;28;20076;-79
2023/12/28 12:12:29;;;;;;;12.17;7.40;;;;;;;;;;10382455;28;20033;-80
2023/12/28 12:17:30;;;;;;;16.77;8.17;;;;;;;;;;10378394;28;20037;-79
2023/12/28 12:22:32;;;;;;;15.97;7.70;;;;;;;;;;10364673;28;20278;-77
2023/12/28 12:27:33;;;;;;;14.63;7.90;;;;;;;;;;10377213;28;20413;-78
2023/12/28 12:32:42;;;;;;;14.40;7.97;;;;;;;;;;10380797;28;20036;-78
2023/12/28 12:37:44;;;;;;;18.37;10.40;;;;;;;;;;10378202;28;20065;-78
2023/12/28 12:42:53;;;;;;;16.00;10.03;;;;;;;;;;10383442;28;20052;-78
2023/12/28 12:47:54;;;;;;;23.40;11.77;;;;;;;;;;10373974;28;20501;-78
2023/12/28 12:52:55;;;;;;;21.30;11.37;;;;;;;;;;10358266;28;20037;-77
2023/12/28 12:57:56;;;;;;;18.90;11.07;;;;;;;;;;10361630;28;20056;-78
2023/12/28 13:03:06;;;;;;;21.90;11.93;;;;;;;;;;10355141;28;20080;-79
2023/12/28 13:08:07;;;;;;;28.20;14.13;;;;;;;;;;10397659;28;20107;-77
2023/12/28 13:13:18;;;;;;;27.47;13.30;;;;;;;;;;10404983;28;20021;-78
2023/12/28 13:18:19;;;;;;;25.33;13.07;;;;;;;;;;10378733;28;20038;-77
2023/12/28 13:23:20;;;;;;;20.13;10.87;;;;;;;;;;10378211;28;20042;-78
2023/12/28 13:28:21;;;;;;;31.50;13.82;;;;;;;;;;10363578;28;20496;-77
2023/12/28 13:33:25;;;;;;;24.75;13.05;;;;;;;;;;10358465;28;20029;-76
2023/12/28 13:39:05;;;;;;;21.88;12.15;;;;;;;;;;10365679;28;20029;-77
2023/12/28 13:44:10;;;;;;;23.70;12.77;;;;;;;;;;10360708;28;20768;-77
2023/12/28 13:49:11;;;;;;;33.10;17.53;;;;;;;;;;10361235;28;20046;-75
2023/12/28 13:54:12;;;;;;;23.30;14.17;;;;;;;;;;10374748;28;20470;-77
2023/12/28 13:59:20;;;;;;;31.10;16.50;;;;;;;;;;10354268;28;20132;-77
2023/12/28 14:04:21;;;;;;;33.23;17.13;;;;;;;;;;10359244;28;20104;-75
2023/12/28 14:09:22;;;;;;;38.13;19.73;;;;;;;;;;10367196;28;20494;-75
2023/12/28 14:14:23;;;;;;;35.87;17.83;;;;;;;;;;10374917;28;20029;-76
2023/12/28 14:19:32;;;;;;;28.77;16.57;;;;;;;;;;10356734;28;20044;-76
2023/12/28 14:24:33;;;;;;;32.87;16.17;;;;;;;;;;10379471;28;20092;-76
2023/12/28 14:29:34;;;;;;;33.53;16.77;;;;;;;;;;10365372;28;20057;-75
2023/12/28 14:34:35;;;;;;;26.30;13.10;;;;;;;;;;10362188;28;20102;-78
2023/12/28 14:39:37;;;;;;;27.40;13.60;;;;;;;;;;10373405;28;20038;-77
2023/12/28 14:44:38;;;;;;;30.50;14.77;;;;;;;;;;10372471;28;20483;-77
2023/12/28 14:49:40;;;;;;;23.63;12.07;;;;;;;;;;10386344;28;20044;-77
2023/12/28 14:54:41;;;;;;;26.00;13.00;;;;;;;;;;10383448;28;20037;-77
2023/12/28 14:59:42;;;;;;;27.77;13.37;;;;;;;;;;10373980;28;20038;-79
2023/12/28 15:04:43;;;;;;;21.00;11.07;;;;;;;;;;10371334;28;20041;-79
2023/12/28 15:09:44;;;;;;;23.00;12.40;;;;;;;;;;10390464;28;20049;-80
2023/12/28 15:14:47;;;;;;;23.80;11.43;;;;;;;;;;10388384;28;20112;-80
2023/12/28 15:19:48;;;;;;;20.73;11.43;;;;;;;;;;10393309;28;20026;-79
2023/12/28 15:24:49;;;;;;;19.47;11.23;;;;;;;;;;10374675;28;20045;-79
2023/12/28 15:29:51;;;;;;;21.47;11.93;;;;;;;;;;10390429;28;20132;-78
2023/12/28 15:34:52;;;;;;;22.20;12.37;;;;;;;;;;10390306;28;20030;-79
2023/12/28 15:39:54;;;;;;;22.77;11.87;;;;;;;;;;10384045;28;20035;-77
2023/12/28 15:44:55;;;;;;;27.67;12.63;;;;;;;;;;10390377;28;20047;-78
2023/12/28 15:49:56;;;;;;;27.13;12.00;;;;;;;;;;10368332;28;20025;-77
2023/12/28 15:54:57;;;;;;;29.30;13.97;;;;;;;;;;10382106;28;20029;-77
2023/12/28 15:59:58;;;;;;;33.07;15.90;;;;;;;;;;10402353;28;20025;-78
2023/12/28 16:05:00;;;;;;;28.80;14.17;;;;;;;;;;10394963;28;20145;-78
2023/12/28 16:10:01;;;;;;;33.13;16.63;;;;;;;;;;10383602;28;20112;-77
2023/12/28 16:15:02;;;;;;;39.57;18.67;;;;;;;;;;10375339;28;20038;-78
2023/12/28 16:20:04;;;;;;;40.60;22.60;;;;;;;;;;10393546;28;20041;-79
2023/12/28 16:25:06;;;;;;;36.33;18.67;;;;;;;;;;10384363;28;20375;-78
2023/12/28 16:30:08;;;;;;;33.57;18.37;;;;;;;;;;10391071;28;20453;-79
2023/12/28 16:35:09;;;;;;;38.07;18.17;;;;;;;;;;10403789;28;20025;-78
2023/12/28 16:40:10;;;;;;;33.30;17.97;;;;;;;;;;10376746;28;20107;-79
2023/12/28 16:45:11;;;;;;;38.13;19.90;;;;;;;;;;10384276;28;20026;-79
2023/12/28 16:50:12;;;;;;;49.87;27.43;;;;;;;;;;10389818;28;20030;-79
2023/12/28 16:55:14;;;;;;;37.50;22.73;;;;;;;;;;10383121;28;20029;-79
2023/12/28 17:00:15;;;;;;;32.70;18.43;;;;;;;;;;10387536;28;20036;-78
2023/12/28 17:05:17;;;;;;;28.17;16.10;;;;;;;;;;10380398;28;20049;-78
2023/12/28 17:10:18;;;;;;;35.17;17.80;;;;;;;;;;10377808;28;20030;-78
2023/12/28 17:15:20;;;;;;;33.00;17.67;;;;;;;;;;10360352;28;20382;-79
2023/12/28 17:20:21;;;;;;;39.63;18.67;;;;;;;;;;10358861;28;20037;-78
2023/12/28 17:25:23;;;;;;;31.93;16.93;;;;;;;;;;10382221;28;20045;-80
2023/12/28 17:30:25;;;;;;;36.90;18.43;;;;;;;;;;10361372;28;20053;-78
2023/12/28 17:35:27;;;;;;;33.53;18.63;;;;;;;;;;10369800;28;20465;-78
2023/12/28 17:40:28;;;;;;;34.53;18.80;;;;;;;;;;10381026;28;20431;-78
2023/12/28 17:45:45;;;;;;;35.33;18.33;;;;;;;;;;10353537;28;20041;-78
2023/12/28 17:50:46;;;;;;;36.13;17.93;;;;;;;;;;10380634;28;20030;-79
2023/12/28 17:55:48;;;;;;;37.33;19.53;;;;;;;;;;10392721;28;20514;-78
2023/12/28 18:00:50;;;;;;;37.40;19.10;;;;;;;;;;10391783;28;20483;-78
2023/12/28 18:05:51;;;;;;;33.33;17.10;;;;;;;;;;10386397;28;20045;-78
2023/12/28 18:10:52;;;;;;;34.13;19.20;;;;;;;;;;10379463;28;20038;-81
2023/12/28 18:15:54;;;;;;;34.90;19.03;;;;;;;;;;10380658;28;20037;-81
2023/12/28 18:20:55;;;;;;;36.80;18.50;;;;;;;;;;10391765;28;20033;-80
2023/12/28 18:25:56;;;;;;;32.47;16.33;;;;;;;;;;10402066;28;20052;-79
2023/12/28 18:30:58;;;;;;;30.83;16.07;;;;;;;;;;10395054;28;20471;-79
2023/12/28 18:35:59;;;;;;;30.80;16.67;;;;;;;;;;10379097;28;20116;-79
2023/12/28 18:41:00;;;;;;;30.73;16.97;;;;;;;;;;10354836;28;20045;-79
2023/12/28 18:46:02;;;;;;;39.17;19.50;;;;;;;;;;10369846;28;20037;-80
2023/12/28 18:51:03;;;;;;;41.63;20.50;;;;;;;;;;10393171;28;20029;-78
2023/12/28 18:56:04;;;;;;;30.63;16.93;;;;;;;;;;10355376;28;20435;-79
2023/12/28 19:23:02;;;;;;;46.77;24.27;;;;;;;;;;10875790;22;21081;-78
2023/12/28 19:45:10;;;;;;;57.27;28.87;;;;;;;;;;10418505;28;20041;-79
2023/12/28 19:50:12;;;;;;;53.37;28.87;;;;;;;;;;10427329;28;20116;-79
2023/12/28 19:55:19;;;;;;;62.13;34.07;;;;;;;;;;10442281;28;20039;-78
2023/12/28 20:00:21;;;;;;;65.07;35.03;;;;;;;;;;10445933;28;20491;-78
2023/12/28 20:05:21;;;;;;;101.07;44.67;;;;;;;;;;10417584;28;20039;-78
2023/12/28 20:10:31;;;;;;;151.63;64.63;;;;;;;;;;10420082;28;20036;-78
2023/12/28 20:15:32;;;;;;;115.07;54.97;;;;;;;;;;10426684;28;20298;-78
2023/12/28 20:20:33;;;;;;;183.27;70.40;;;;;;;;;;10430527;22;20770;-78
2023/12/28 20:25:36;;;;;;;166.47;61.77;;;;;;;;;;10396751;28;20045;-79
2023/12/28 20:30:37;;;;;;;98.77;42.13;;;;;;;;;;10386332;28;20077;-78
2023/12/28 20:35:38;;;;;;;96.67;40.00;;;;;;;;;;10376647;28;20038;-79
2023/12/28 20:40:39;;;;;;;98.27;43.07;;;;;;;;;;10406581;28;20485;-79
2023/12/28 20:45:40;;;;;;;85.90;40.50;;;;;;;;;;10375936;28;20072;-78
2023/12/28 20:50:41;;;;;;;89.83;41.63;;;;;;;;;;10388017;28;20038;-80
2023/12/28 20:55:42;;;;;;;106.27;46.73;;;;;;;;;;10387086;28;20022;-78
2023/12/28 21:00:43;;;;;;;76.23;34.33;;;;;;;;;;10368238;28;20030;-78
2023/12/28 21:05:44;;;;;;;78.83;36.13;;;;;;;;;;10389838;28;20046;-78
2023/12/28 21:10:45;;;;;;;58.70;29.93;;;;;;;;;;10373880;28;20421;-78
2023/12/28 21:15:47;;;;;;;64.70;31.30;;;;;;;;;;10378553;28;20041;-80
2023/12/28 21:20:50;;;;;;;80.53;35.87;;;;;;;;;;10378013;28;20061;-78
2023/12/28 21:25:51;;;;;;;77.03;37.27;;;;;;;;;;10368372;28;20128;-78
2023/12/28 21:30:52;;;;;;;83.93;44.57;;;;;;;;;;10365028;28;20783;-78
2023/12/28 21:35:53;;;;;;;96.20;44.23;;;;;;;;;;10406125;28;20033;-80
2023/12/28 21:40:54;;;;;;;90.80;43.60;;;;;;;;;;10381417;28;20030;-79
2023/12/28 21:45:55;;;;;;;89.17;48.47;;;;;;;;;;10382147;28;20049;-79
2023/12/28 21:50:58;;;;;;;74.97;36.47;;;;;;;;;;10379977;28;20048;-78
2023/12/28 21:56:00;;;;;;;84.87;37.90;;;;;;;;;;10374524;28;20068;-79
2023/12/28 22:01:01;;;;;;;81.27;35.80;;;;;;;;;;10342764;28;20683;-78
2023/12/28 22:06:04;;;;;;;97.03;39.90;;;;;;;;;;10397340;28;20045;-78
2023/12/28 22:11:05;;;;;;;139.37;58.63;;;;;;;;;;10376516;28;20037;-80
2023/12/28 22:16:06;;;;;;;137.33;57.10;;;;;;;;;;10353186;28;20521;-78
2023/12/28 22:21:07;;;;;;;110.07;43.73;;;;;;;;;;10373496;28;20053;-78
2023/12/28 22:26:08;;;;;;;91.03;39.33;;;;;;;;;;10346603;28;20045;-78
2023/12/28 22:31:12;;;;;;;93.97;39.57;;;;;;;;;;10378853;28;20099;-78
2023/12/28 22:36:13;;;;;;;87.13;36.77;;;;;;;;;;10386521;28;20034;-79
2023/12/28 22:41:14;;;;;;;98.73;49.73;;;;;;;;;;10382402;28;20109;-78
2023/12/28 22:46:15;;;;;;;76.10;37.77;;;;;;;;;;10380033;28;20097;-80
2023/12/28 22:51:16;;;;;;;59.40;29.40;;;;;;;;;;10362203;28;20029;-80
2023/12/28 22:56:17;;;;;;;50.13;26.00;;;;;;;;;;10378552;28;20037;-80
2023/12/28 23:01:21;;;;;;;47.07;22.40;;;;;;;;;;10391268;28;20528;-78
2023/12/28 23:06:22;;;;;;;40.43;21.83;;;;;;;;;;10408432;28;20045;-78
2023/12/28 23:11:23;;;;;;;45.60;23.07;;;;;;;;;;10376978;28;20025;-78
2023/12/28 23:16:24;;;;;;;42.13;22.47;;;;;;;;;;10371299;28;20028;-78
2023/12/28 23:21:31;;;;;;;40.97;22.13;;;;;;;;;;10370133;28;20053;-79
2023/12/28 23:26:32;;;;;;;46.67;24.07;;;;;;;;;;10386820;28;20049;-77
2023/12/28 23:31:33;;;;;;;51.83;28.27;;;;;;;;;;10366579;28;20032;-79
2023/12/28 23:36:36;;;;;;;54.37;27.70;;;;;;;;;;10358436;28;20458;-77
2023/12/28 23:41:37;;;;;;;51.67;26.60;;;;;;;;;;10373615;28;20041;-81
2023/12/28 23:46:38;;;;;;;45.83;23.93;;;;;;;;;;10393069;28;20046;-77
2023/12/28 23:51:39;;;;;;;44.20;23.20;;;;;;;;;;10402931;28;20638;-79
2023/12/28 23:56:40;;;;;;;37.30;20.33;;;;;;;;;;10395300;28;20084;-77
